sensor_id;sensor_type;location;lat;lon;timestamp;temperature;humidity
47226;DHT22;32965;64.142;-21.912;2022-07-23T00:02:09;12.90;99.90
47226;DHT22;32965;64.142;-21.912;2022-07-23T00:07:02;12.80;99.90
47226;DHT22;32965;64.142;-21.912;2022-07-23T00:09:28;12.80;99.90
47226;DHT22;32965;64.142;-21.912;2022-07-23T00:11:57;12.90;99.90
47226;DHT22;32965;64.142;-21.912;2022-07-23T00:14:24;12.90;99.90
47226;DHT22;32965;64.142;-21.912;2022-07-23T00:16:49;12.90;99.90
47226;DHT22;32965;64.142;-21.912;2022-07-23T00:21:42;12.80;99.90
47226;DHT22;32965;64.142;-21.912;2022-07-23T00:24:08;12.80;99.90
47226;DHT22;32965;64.142;-21.912;2022-07-23T00:26:34;12.90;99.90
47226;DHT22;32965;64.142;-21.912;2022-07-23T00:31:27;12.90;99.90
47226;DHT22;32965;64.142;-21.912;2022-07-23T00:33:58;12.80;99.90
47226;DHT22;32965;64.142;-21.912;2022-07-23T00:36:27;12.80;99.90
47226;DHT22;32965;64.142;-21.912;2022-07-23T00:38:53;12.80;99.90
47226;DHT22;32965;64.142;-21.912;2022-07-23T00:41:19;12.80;99.90
47226;DHT22;32965;64.142;-21.912;2022-07-23T00:43:46;12.80;99.90
47226;DHT22;32965;64.142;-21.912;2022-07-23T00:46:12;12.80;99.90
47226;DHT22;32965;64.142;-21.912;2022-07-23T00:51:05;12.80;99.90
47226;DHT22;32965;64.142;-21.912;2022-07-23T00:53:31;12.80;99.90
47226;DHT22;32965;64.142;-21.912;2022-07-23T00:55:58;12.80;99.90
47226;DHT22;32965;64.142;-21.912;2022-07-23T00:58:24;12.20;99.90
47226;DHT22;32965;64.142;-21.912;2022-07-23T01:00:50;12.80;99.90
47226;DHT22;32965;64.142;-21.912;2022-07-23T01:03:16;12.80;99.90
47226;DHT22;32965;64.142;-21.912;2022-07-23T01:05:41;12.70;99.90
47226;DHT22;32965;64.142;-21.912;2022-07-23T01:10:33;12.80;99.90
47226;DHT22;32965;64.142;-21.912;2022-07-23T01:13:02;12.70;99.90
47226;DHT22;32965;64.142;-21.912;2022-07-23T01:15:29;12.80;99.90
47226;DHT22;32965;64.142;-21.912;2022-07-23T01:17:55;12.60;99.90
47226;DHT22;32965;64.142;-21.912;2022-07-23T01:20:21;12.70;99.90
47226;DHT22;32965;64.142;-21.912;2022-07-23T01:22:48;12.70;99.90
47226;DHT22;32965;64.142;-21.912;2022-07-23T01:25:14;12.70;99.90
47226;DHT22;32965;64.142;-21.912;2022-07-23T01:27:40;12.60;99.90
47226;DHT22;32965;64.142;-21.912;2022-07-23T01:30:07;12.60;99.90
47226;DHT22;32965;64.142;-21.912;2022-07-23T01:32:34;12.70;99.90
47226;DHT22;32965;64.142;-21.912;2022-07-23T01:35:00;12.60;99.90
47226;DHT22;32965;64.142;-21.912;2022-07-23T01:37:26;12.60;99.90
47226;DHT22;32965;64.142;-21.912;2022-07-23T01:42:18;12.60;99.90
47226;DHT22;32965;64.142;-21.912;2022-07-23T01:44:45;12.60;99.90
47226;DHT22;32965;64.142;-21.912;2022-07-23T01:47:11;12.50;99.90
47226;DHT22;32965;64.142;-21.912;2022-07-23T01:49:37;12.50;99.90
47226;DHT22;32965;64.142;-21.912;2022-07-23T01:52:03;12.50;99.90
47226;DHT22;32965;64.142;-21.912;2022-07-23T01:54:33;12.50;99.90
47226;DHT22;32965;64.142;-21.912;2022-07-23T01:57:00;12.50;99.90
47226;DHT22;32965;64.142;-21.912;2022-07-23T01:59:27;12.50;99.90
47226;DHT22;32965;64.142;-21.912;2022-07-23T02:01:53;12.50;99.90
47226;DHT22;32965;64.142;-21.912;2022-07-23T02:04:20;12.50;99.90
47226;DHT22;32965;64.142;-21.912;2022-07-23T02:06:46;12.60;99.90
47226;DHT22;32965;64.142;-21.912;2022-07-23T02:09:12;12.60;99.90
47226;DHT22;32965;64.142;-21.912;2022-07-23T02:11:39;12.60;99.90
47226;DHT22;32965;64.142;-21.912;2022-07-23T02:14:04;12.60;99.90
47226;DHT22;32965;64.142;-21.912;2022-07-23T02:16:30;12.50;99.90
47226;DHT22;32965;64.142;-21.912;2022-07-23T02:18:56;12.50;99.90
47226;DHT22;32965;64.142;-21.912;2022-07-23T02:21:24;12.50;99.90
47226;DHT22;32965;64.142;-21.912;2022-07-23T02:23:50;12.50;99.90
47226;DHT22;32965;64.142;-21.912;2022-07-23T02:26:17;12.50;99.90
47226;DHT22;32965;64.142;-21.912;2022-07-23T02:28:43;12.60;99.90
47226;DHT22;32965;64.142;-21.912;2022-07-23T02:31:08;12.60;99.90
47226;DHT22;32965;64.142;-21.912;2022-07-23T02:33:34;12.60;99.90
47226;DHT22;32965;64.142;-21.912;2022-07-23T02:36:00;12.60;99.90
47226;DHT22;32965;64.142;-21.912;2022-07-23T02:38:26;12.50;99.90
47226;DHT22;32965;64.142;-21.912;2022-07-23T02:40:53;12.60;99.90
47226;DHT22;32965;64.142;-21.912;2022-07-23T02:43:18;12.50;99.90
47226;DHT22;32965;64.142;-21.912;2022-07-23T02:45:44;12.60;99.90
47226;DHT22;32965;64.142;-21.912;2022-07-23T02:48:10;12.60;99.90
47226;DHT22;32965;64.142;-21.912;2022-07-23T02:50:38;12.50;99.90
47226;DHT22;32965;64.142;-21.912;2022-07-23T02:53:04;12.60;99.90
47226;DHT22;32965;64.142;-21.912;2022-07-23T02:55:30;12.60;99.90
47226;DHT22;32965;64.142;-21.912;2022-07-23T02:57:56;12.60;99.90
47226;DHT22;32965;64.142;-21.912;2022-07-23T03:00:22;12.60;99.90
47226;DHT22;32965;64.142;-21.912;2022-07-23T03:02:49;12.60;99.90
47226;DHT22;32965;64.142;-21.912;2022-07-23T03:05:15;12.70;99.90
47226;DHT22;32965;64.142;-21.912;2022-07-23T03:07:41;12.60;99.90
47226;DHT22;32965;64.142;-21.912;2022-07-23T03:10:07;12.60;99.90
47226;DHT22;32965;64.142;-21.912;2022-07-23T03:12:33;12.60;99.90
47226;DHT22;32965;64.142;-21.912;2022-07-23T03:14:59;12.60;99.90
47226;DHT22;32965;64.142;-21.912;2022-07-23T03:17:25;12.60;99.90
47226;DHT22;32965;64.142;-21.912;2022-07-23T03:19:50;12.60;99.90
47226;DHT22;32965;64.142;-21.912;2022-07-23T03:22:16;12.60;99.90
47226;DHT22;32965;64.142;-21.912;2022-07-23T03:24:42;12.60;99.90
47226;DHT22;32965;64.142;-21.912;2022-07-23T03:27:25;12.60;99.90
47226;DHT22;32965;64.142;-21.912;2022-07-23T03:29:53;12.60;99.90
47226;DHT22;32965;64.142;-21.912;2022-07-23T03:32:19;12.60;99.90
47226;DHT22;32965;64.142;-21.912;2022-07-23T03:34:46;12.50;99.90
47226;DHT22;32965;64.142;-21.912;2022-07-23T03:37:12;12.50;99.90
47226;DHT22;32965;64.142;-21.912;2022-07-23T03:39:38;12.50;99.90
47226;DHT22;32965;64.142;-21.912;2022-07-23T03:42:04;12.50;99.90
47226;DHT22;32965;64.142;-21.912;2022-07-23T03:44:30;12.50;99.90
47226;DHT22;32965;64.142;-21.912;2022-07-23T03:46:56;12.50;99.90
47226;DHT22;32965;64.142;-21.912;2022-07-23T03:49:22;12.40;99.90
47226;DHT22;32965;64.142;-21.912;2022-07-23T03:51:48;12.40;99.90
47226;DHT22;32965;64.142;-21.912;2022-07-23T03:54:14;12.40;99.90
47226;DHT22;32965;64.142;-21.912;2022-07-23T03:56:40;12.40;99.90
47226;DHT22;32965;64.142;-21.912;2022-07-23T03:59:06;12.40;99.90
47226;DHT22;32965;64.142;-21.912;2022-07-23T04:01:33;12.40;99.90
47226;DHT22;32965;64.142;-21.912;2022-07-23T04:03:59;12.40;99.90
47226;DHT22;32965;64.142;-21.912;2022-07-23T04:06:25;12.40;99.90
47226;DHT22;32965;64.142;-21.912;2022-07-23T04:08:50;12.40;99.90
47226;DHT22;32965;64.142;-21.912;2022-07-23T04:11:16;12.40;99.90
47226;DHT22;32965;64.142;-21.912;2022-07-23T04:13:42;12.40;99.90
47226;DHT22;32965;64.142;-21.912;2022-07-23T04:16:08;12.40;99.90
47226;DHT22;32965;64.142;-21.912;2022-07-23T04:18:33;12.40;99.90
47226;DHT22;32965;64.142;-21.912;2022-07-23T04:20:59;12.40;99.90
47226;DHT22;32965;64.142;-21.912;2022-07-23T04:23:25;12.40;99.90
47226;DHT22;32965;64.142;-21.912;2022-07-23T04:25:51;12.40;99.90
47226;DHT22;32965;64.142;-21.912;2022-07-23T04:28:17;12.40;99.90
47226;DHT22;32965;64.142;-21.912;2022-07-23T04:30:43;12.40;99.90
47226;DHT22;32965;64.142;-21.912;2022-07-23T04:33:10;12.50;99.90
47226;DHT22;32965;64.142;-21.912;2022-07-23T04:35:36;12.50;99.90
47226;DHT22;32965;64.142;-21.912;2022-07-23T04:38:03;12.60;99.90
47226;DHT22;32965;64.142;-21.912;2022-07-23T04:40:29;12.60;99.90
47226;DHT22;32965;64.142;-21.912;2022-07-23T04:42:55;12.60;99.90
47226;DHT22;32965;64.142;-21.912;2022-07-23T04:45:21;12.60;99.90
47226;DHT22;32965;64.142;-21.912;2022-07-23T04:47:49;12.50;99.90
47226;DHT22;32965;64.142;-21.912;2022-07-23T04:50:15;12.50;99.90
47226;DHT22;32965;64.142;-21.912;2022-07-23T04:52:45;12.50;99.90
47226;DHT22;32965;64.142;-21.912;2022-07-23T04:55:10;12.40;99.90
47226;DHT22;32965;64.142;-21.912;2022-07-23T04:57:36;12.40;99.90
47226;DHT22;32965;64.142;-21.912;2022-07-23T05:00:03;12.40;99.90
47226;DHT22;32965;64.142;-21.912;2022-07-23T05:02:29;12.50;99.90
47226;DHT22;32965;64.142;-21.912;2022-07-23T05:04:55;12.50;99.90
47226;DHT22;32965;64.142;-21.912;2022-07-23T05:07:21;12.50;99.90
47226;DHT22;32965;64.142;-21.912;2022-07-23T05:09:46;12.50;99.90
47226;DHT22;32965;64.142;-21.912;2022-07-23T05:12:12;12.50;99.90
47226;DHT22;32965;64.142;-21.912;2022-07-23T05:14:38;12.50;99.90
47226;DHT22;32965;64.142;-21.912;2022-07-23T05:17:04;12.50;99.90
47226;DHT22;32965;64.142;-21.912;2022-07-23T05:19:31;12.40;99.90
47226;DHT22;32965;64.142;-21.912;2022-07-23T05:21:57;12.40;99.90
47226;DHT22;32965;64.142;-21.912;2022-07-23T05:24:22;12.40;99.90
47226;DHT22;32965;64.142;-21.912;2022-07-23T05:26:48;12.40;99.90
47226;DHT22;32965;64.142;-21.912;2022-07-23T05:29:14;12.40;99.90
47226;DHT22;32965;64.142;-21.912;2022-07-23T05:31:40;12.40;99.90
47226;DHT22;32965;64.142;-21.912;2022-07-23T05:34:05;12.30;99.90
47226;DHT22;32965;64.142;-21.912;2022-07-23T05:36:31;12.40;99.90
47226;DHT22;32965;64.142;-21.912;2022-07-23T05:38:58;12.40;99.90
47226;DHT22;32965;64.142;-21.912;2022-07-23T05:41:24;12.40;99.90
47226;DHT22;32965;64.142;-21.912;2022-07-23T05:43:50;12.50;99.90
47226;DHT22;32965;64.142;-21.912;2022-07-23T05:46:16;12.60;99.90
47226;DHT22;32965;64.142;-21.912;2022-07-23T05:48:42;12.60;99.90
47226;DHT22;32965;64.142;-21.912;2022-07-23T05:51:08;12.70;99.90
47226;DHT22;32965;64.142;-21.912;2022-07-23T05:53:35;12.80;99.90
47226;DHT22;32965;64.142;-21.912;2022-07-23T05:56:01;12.90;99.90
47226;DHT22;32965;64.142;-21.912;2022-07-23T05:58:27;12.80;99.90
47226;DHT22;32965;64.142;-21.912;2022-07-23T06:00:53;12.90;99.90
47226;DHT22;32965;64.142;-21.912;2022-07-23T06:03:19;12.90;99.90
47226;DHT22;32965;64.142;-21.912;2022-07-23T06:05:45;13.00;99.90
47226;DHT22;32965;64.142;-21.912;2022-07-23T06:08:11;13.10;99.90
47226;DHT22;32965;64.142;-21.912;2022-07-23T06:10:37;13.10;99.90
47226;DHT22;32965;64.142;-21.912;2022-07-23T06:13:03;13.30;99.90
47226;DHT22;32965;64.142;-21.912;2022-07-23T06:15:29;13.40;99.90
47226;DHT22;32965;64.142;-21.912;2022-07-23T06:17:56;13.50;99.90
47226;DHT22;32965;64.142;-21.912;2022-07-23T06:20:21;13.50;99.90
47226;DHT22;32965;64.142;-21.912;2022-07-23T06:22:48;13.50;99.90
47226;DHT22;32965;64.142;-21.912;2022-07-23T06:25:14;13.60;99.90
47226;DHT22;32965;64.142;-21.912;2022-07-23T06:27:41;13.60;99.90
47226;DHT22;32965;64.142;-21.912;2022-07-23T06:30:08;13.60;99.90
47226;DHT22;32965;64.142;-21.912;2022-07-23T06:32:34;13.70;99.90
47226;DHT22;32965;64.142;-21.912;2022-07-23T06:34:59;13.80;99.90
47226;DHT22;32965;64.142;-21.912;2022-07-23T06:37:26;13.90;99.90
47226;DHT22;32965;64.142;-21.912;2022-07-23T06:39:52;13.80;99.90
47226;DHT22;32965;64.142;-21.912;2022-07-23T06:42:17;13.80;99.90
47226;DHT22;32965;64.142;-21.912;2022-07-23T06:44:43;13.70;99.90
47226;DHT22;32965;64.142;-21.912;2022-07-23T06:47:09;13.70;99.90
47226;DHT22;32965;64.142;-21.912;2022-07-23T06:49:35;13.70;99.90
47226;DHT22;32965;64.142;-21.912;2022-07-23T06:52:01;13.80;99.90
47226;DHT22;32965;64.142;-21.912;2022-07-23T06:54:27;13.90;99.90
47226;DHT22;32965;64.142;-21.912;2022-07-23T06:56:53;13.80;99.90
47226;DHT22;32965;64.142;-21.912;2022-07-23T06:59:20;13.80;99.90
47226;DHT22;32965;64.142;-21.912;2022-07-23T07:01:45;13.80;99.90
47226;DHT22;32965;64.142;-21.912;2022-07-23T07:04:11;13.80;99.90
47226;DHT22;32965;64.142;-21.912;2022-07-23T07:06:37;13.80;99.90
47226;DHT22;32965;64.142;-21.912;2022-07-23T07:09:03;13.90;99.90
47226;DHT22;32965;64.142;-21.912;2022-07-23T07:11:29;13.90;99.90
47226;DHT22;32965;64.142;-21.912;2022-07-23T07:13:54;14.00;99.90
47226;DHT22;32965;64.142;-21.912;2022-07-23T07:16:20;14.00;99.90
47226;DHT22;32965;64.142;-21.912;2022-07-23T07:18:46;14.10;99.90
47226;DHT22;32965;64.142;-21.912;2022-07-23T07:21:13;14.10;99.90
47226;DHT22;32965;64.142;-21.912;2022-07-23T07:23:39;14.00;99.90
47226;DHT22;32965;64.142;-21.912;2022-07-23T07:26:05;13.90;99.90
47226;DHT22;32965;64.142;-21.912;2022-07-23T07:28:31;13.80;99.90
47226;DHT22;32965;64.142;-21.912;2022-07-23T07:30:56;13.80;99.90
47226;DHT22;32965;64.142;-21.912;2022-07-23T07:33:22;13.80;99.90
47226;DHT22;32965;64.142;-21.912;2022-07-23T07:35:48;13.70;99.90
47226;DHT22;32965;64.142;-21.912;2022-07-23T07:38:15;13.70;99.90
47226;DHT22;32965;64.142;-21.912;2022-07-23T07:40:41;13.80;99.90
47226;DHT22;32965;64.142;-21.912;2022-07-23T07:43:08;13.70;99.90
47226;DHT22;32965;64.142;-21.912;2022-07-23T07:45:34;13.80;99.90
47226;DHT22;32965;64.142;-21.912;2022-07-23T07:47:59;13.90;99.90
47226;DHT22;32965;64.142;-21.912;2022-07-23T07:50:27;13.90;99.90
47226;DHT22;32965;64.142;-21.912;2022-07-23T07:52:54;14.00;99.80
47226;DHT22;32965;64.142;-21.912;2022-07-23T07:55:20;14.00;99.80
47226;DHT22;32965;64.142;-21.912;2022-07-23T07:57:46;14.00;99.80
47226;DHT22;32965;64.142;-21.912;2022-07-23T08:00:12;14.00;99.70
47226;DHT22;32965;64.142;-21.912;2022-07-23T08:02:41;14.00;99.60
47226;DHT22;32965;64.142;-21.912;2022-07-23T08:05:08;14.00;99.60
47226;DHT22;32965;64.142;-21.912;2022-07-23T08:07:33;14.10;99.60
47226;DHT22;32965;64.142;-21.912;2022-07-23T08:10:09;14.20;99.50
47226;DHT22;32965;64.142;-21.912;2022-07-23T08:12:55;14.20;99.30
47226;DHT22;32965;64.142;-21.912;2022-07-23T08:15:22;14.10;99.30
47226;DHT22;32965;64.142;-21.912;2022-07-23T08:17:49;14.10;99.30
47226;DHT22;32965;64.142;-21.912;2022-07-23T08:20:17;14.20;99.20
47226;DHT22;32965;64.142;-21.912;2022-07-23T08:22:44;14.20;99.40
47226;DHT22;32965;64.142;-21.912;2022-07-23T08:25:11;14.10;99.00
47226;DHT22;32965;64.142;-21.912;2022-07-23T08:27:37;14.10;99.20
47226;DHT22;32965;64.142;-21.912;2022-07-23T08:30:03;14.20;99.10
47226;DHT22;32965;64.142;-21.912;2022-07-23T08:32:30;14.20;99.00
47226;DHT22;32965;64.142;-21.912;2022-07-23T08:34:56;14.20;98.90
47226;DHT22;32965;64.142;-21.912;2022-07-23T08:37:22;14.10;99.00
47226;DHT22;32965;64.142;-21.912;2022-07-23T08:39:48;14.00;98.90
47226;DHT22;32965;64.142;-21.912;2022-07-23T08:42:14;13.90;98.80
47226;DHT22;32965;64.142;-21.912;2022-07-23T08:44:45;13.90;99.10
47226;DHT22;32965;64.142;-21.912;2022-07-23T08:47:13;14.00;98.70
47226;DHT22;32965;64.142;-21.912;2022-07-23T08:49:41;13.90;98.90
47226;DHT22;32965;64.142;-21.912;2022-07-23T08:52:07;13.90;98.90
47226;DHT22;32965;64.142;-21.912;2022-07-23T08:54:34;13.90;98.90
47226;DHT22;32965;64.142;-21.912;2022-07-23T08:57:00;13.90;98.80
47226;DHT22;32965;64.142;-21.912;2022-07-23T08:59:26;13.80;98.70
47226;DHT22;32965;64.142;-21.912;2022-07-23T09:01:52;13.90;99.10
47226;DHT22;32965;64.142;-21.912;2022-07-23T09:04:18;13.90;99.00
47226;DHT22;32965;64.142;-21.912;2022-07-23T09:06:44;14.00;99.10
47226;DHT22;32965;64.142;-21.912;2022-07-23T09:09:18;14.20;98.70
47226;DHT22;32965;64.142;-21.912;2022-07-23T09:11:48;14.20;98.50
47226;DHT22;32965;64.142;-21.912;2022-07-23T09:14:44;14.30;98.50
47226;DHT22;32965;64.142;-21.912;2022-07-23T09:17:15;14.40;98.40
47226;DHT22;32965;64.142;-21.912;2022-07-23T09:19:43;14.40;98.50
47226;DHT22;32965;64.142;-21.912;2022-07-23T09:22:26;14.50;98.10
47226;DHT22;32965;64.142;-21.912;2022-07-23T09:25:10;14.60;98.20
47226;DHT22;32965;64.142;-21.912;2022-07-23T09:27:58;14.60;97.70
47226;DHT22;32965;64.142;-21.912;2022-07-23T09:30:29;14.60;97.80
47226;DHT22;32965;64.142;-21.912;2022-07-23T09:35:52;14.50;97.50
47226;DHT22;32965;64.142;-21.912;2022-07-23T09:38:23;14.60;97.60
47226;DHT22;32965;64.142;-21.912;2022-07-23T09:41:08;14.50;97.70
47226;DHT22;32965;64.142;-21.912;2022-07-23T09:43:35;14.40;97.60
47226;DHT22;32965;64.142;-21.912;2022-07-23T09:46:25;14.40;97.90
47226;DHT22;32965;64.142;-21.912;2022-07-23T09:48:55;14.50;97.90
47226;DHT22;32965;64.142;-21.912;2022-07-23T09:51:23;14.60;98.00
47226;DHT22;32965;64.142;-21.912;2022-07-23T09:54:04;14.70;97.80
47226;DHT22;32965;64.142;-21.912;2022-07-23T09:56:31;14.80;97.60
47226;DHT22;32965;64.142;-21.912;2022-07-23T09:58:59;14.80;97.50
47226;DHT22;32965;64.142;-21.912;2022-07-23T10:01:31;14.70;97.60
47226;DHT22;32965;64.142;-21.912;2022-07-23T10:03:59;14.60;97.70
47226;DHT22;32965;64.142;-21.912;2022-07-23T10:06:25;14.60;97.60
47226;DHT22;32965;64.142;-21.912;2022-07-23T10:08:56;14.60;97.80
47226;DHT22;32965;64.142;-21.912;2022-07-23T10:11:24;14.80;97.60
47226;DHT22;32965;64.142;-21.912;2022-07-23T10:13:53;14.90;97.50
47226;DHT22;32965;64.142;-21.912;2022-07-23T10:16:27;15.00;97.50
47226;DHT22;32965;64.142;-21.912;2022-07-23T10:18:53;15.20;97.50
47226;DHT22;32965;64.142;-21.912;2022-07-23T10:27:00;15.20;96.80
47226;DHT22;32965;64.142;-21.912;2022-07-23T10:37:34;15.30;96.40
47226;DHT22;32965;64.142;-21.912;2022-07-23T10:40:16;15.20;96.10
47226;DHT22;32965;64.142;-21.912;2022-07-23T10:42:46;15.10;95.90
47226;DHT22;32965;64.142;-21.912;2022-07-23T10:45:32;15.00;96.00
47226;DHT22;32965;64.142;-21.912;2022-07-23T10:48:21;15.00;96.10
47226;DHT22;32965;64.142;-21.912;2022-07-23T10:56:50;16.10;95.10
47226;DHT22;32965;64.142;-21.912;2022-07-23T10:59:16;16.20;94.80
47226;DHT22;32965;64.142;-21.912;2022-07-23T11:01:42;16.10;94.40
47226;DHT22;32965;64.142;-21.912;2022-07-23T11:04:09;16.20;94.30
47226;DHT22;32965;64.142;-21.912;2022-07-23T11:09:27;16.30;93.80
47226;DHT22;32965;64.142;-21.912;2022-07-23T11:15:07;16.30;93.70
47226;DHT22;32965;64.142;-21.912;2022-07-23T11:17:36;16.40;93.80
47226;DHT22;32965;64.142;-21.912;2022-07-23T11:22:49;16.60;93.10
47226;DHT22;32965;64.142;-21.912;2022-07-23T11:27:49;16.50;92.90
47226;DHT22;32965;64.142;-21.912;2022-07-23T11:35:45;16.60;92.60
47226;DHT22;32965;64.142;-21.912;2022-07-23T11:38:17;16.50;92.60
47226;DHT22;32965;64.142;-21.912;2022-07-23T11:40:55;16.40;92.60
47226;DHT22;32965;64.142;-21.912;2022-07-23T11:43:23;16.40;92.60
47226;DHT22;32965;64.142;-21.912;2022-07-23T11:45:52;16.30;92.70
47226;DHT22;32965;64.142;-21.912;2022-07-23T11:48:22;16.40;92.70
47226;DHT22;32965;64.142;-21.912;2022-07-23T11:50:49;16.20;92.60
47226;DHT22;32965;64.142;-21.912;2022-07-23T11:53:26;15.80;92.90
47226;DHT22;32965;64.142;-21.912;2022-07-23T11:55:53;15.60;93.40
47226;DHT22;32965;64.142;-21.912;2022-07-23T11:58:21;15.60;93.80
47226;DHT22;32965;64.142;-21.912;2022-07-23T12:00:47;15.80;93.80
47226;DHT22;32965;64.142;-21.912;2022-07-23T12:03:13;15.70;93.20
47226;DHT22;32965;64.142;-21.912;2022-07-23T12:05:40;15.60;93.70
47226;DHT22;32965;64.142;-21.912;2022-07-23T12:08:07;15.50;93.70
47226;DHT22;32965;64.142;-21.912;2022-07-23T12:10:42;15.50;94.50
47226;DHT22;32965;64.142;-21.912;2022-07-23T12:13:13;15.60;94.10
47226;DHT22;32965;64.142;-21.912;2022-07-23T12:15:42;15.30;94.30
47226;DHT22;32965;64.142;-21.912;2022-07-23T12:18:11;15.20;95.00
47226;DHT22;32965;64.142;-21.912;2022-07-23T12:20:45;15.30;95.00
47226;DHT22;32965;64.142;-21.912;2022-07-23T12:23:14;15.30;95.00
47226;DHT22;32965;64.142;-21.912;2022-07-23T12:25:42;15.20;95.10
47226;DHT22;32965;64.142;-21.912;2022-07-23T12:28:21;14.90;95.40
47226;DHT22;32965;64.142;-21.912;2022-07-23T12:30:49;14.80;95.80
47226;DHT22;32965;64.142;-21.912;2022-07-23T12:33:29;14.70;96.00
47226;DHT22;32965;64.142;-21.912;2022-07-23T12:36:01;14.40;96.30
47226;DHT22;32965;64.142;-21.912;2022-07-23T12:38:41;14.50;96.60
47226;DHT22;32965;64.142;-21.912;2022-07-23T12:41:07;14.50;96.70
47226;DHT22;32965;64.142;-21.912;2022-07-23T12:43:38;14.50;96.90
47226;DHT22;32965;64.142;-21.912;2022-07-23T12:46:18;14.80;96.90
47226;DHT22;32965;64.142;-21.912;2022-07-23T12:51:28;15.00;96.70
47226;DHT22;32965;64.142;-21.912;2022-07-23T12:54:07;15.20;96.20
47226;DHT22;32965;64.142;-21.912;2022-07-23T12:56:37;15.40;95.80
47226;DHT22;32965;64.142;-21.912;2022-07-23T13:01:32;15.00;95.50
47226;DHT22;32965;64.142;-21.912;2022-07-23T13:04:11;15.20;95.70
47226;DHT22;32965;64.142;-21.912;2022-07-23T13:06:46;15.20;95.50
47226;DHT22;32965;64.142;-21.912;2022-07-23T13:09:15;15.30;95.40
47226;DHT22;32965;64.142;-21.912;2022-07-23T13:11:42;15.30;95.20
47226;DHT22;32965;64.142;-21.912;2022-07-23T13:14:09;15.50;95.40
47226;DHT22;32965;64.142;-21.912;2022-07-23T13:16:35;15.70;95.00
47226;DHT22;32965;64.142;-21.912;2022-07-23T13:19:03;15.80;94.60
47226;DHT22;32965;64.142;-21.912;2022-07-23T13:21:30;15.90;94.50
47226;DHT22;32965;64.142;-21.912;2022-07-23T13:23:58;15.70;93.90
47226;DHT22;32965;64.142;-21.912;2022-07-23T13:26:26;15.60;94.20
47226;DHT22;32965;64.142;-21.912;2022-07-23T13:28:52;15.70;94.40
47226;DHT22;32965;64.142;-21.912;2022-07-23T13:31:20;15.90;94.20
47226;DHT22;32965;64.142;-21.912;2022-07-23T13:33:47;15.90;93.60
47226;DHT22;32965;64.142;-21.912;2022-07-23T13:36:13;15.90;93.60
47226;DHT22;32965;64.142;-21.912;2022-07-23T13:38:39;16.00;93.50
47226;DHT22;32965;64.142;-21.912;2022-07-23T13:41:06;15.90;93.40
47226;DHT22;32965;64.142;-21.912;2022-07-23T13:43:32;15.90;93.60
47226;DHT22;32965;64.142;-21.912;2022-07-23T13:45:59;15.90;93.80
47226;DHT22;32965;64.142;-21.912;2022-07-23T13:48:26;15.80;93.60
47226;DHT22;32965;64.142;-21.912;2022-07-23T13:50:52;15.50;94.00
47226;DHT22;32965;64.142;-21.912;2022-07-23T13:53:20;15.30;94.60
47226;DHT22;32965;64.142;-21.912;2022-07-23T13:55:47;15.10;95.10
47226;DHT22;32965;64.142;-21.912;2022-07-23T13:58:15;15.00;95.20
47226;DHT22;32965;64.142;-21.912;2022-07-23T14:00:45;14.90;95.60
47226;DHT22;32965;64.142;-21.912;2022-07-23T14:03:13;15.00;95.70
47226;DHT22;32965;64.142;-21.912;2022-07-23T14:05:39;15.10;95.70
47226;DHT22;32965;64.142;-21.912;2022-07-23T14:08:05;15.00;95.50
47226;DHT22;32965;64.142;-21.912;2022-07-23T14:10:31;15.00;95.60
47226;DHT22;32965;64.142;-21.912;2022-07-23T14:12:57;14.90;95.90
47226;DHT22;32965;64.142;-21.912;2022-07-23T14:15:29;15.10;96.00
47226;DHT22;32965;64.142;-21.912;2022-07-23T14:17:55;15.00;95.60
47226;DHT22;32965;64.142;-21.912;2022-07-23T14:20:21;15.10;95.40
47226;DHT22;32965;64.142;-21.912;2022-07-23T14:22:48;15.10;95.60
47226;DHT22;32965;64.142;-21.912;2022-07-23T14:25:15;15.20;95.50
47226;DHT22;32965;64.142;-21.912;2022-07-23T14:27:41;16.40;95.60
47226;DHT22;32965;64.142;-21.912;2022-07-23T14:30:08;15.40;94.90
47226;DHT22;32965;64.142;-21.912;2022-07-23T14:32:35;15.50;94.90
47226;DHT22;32965;64.142;-21.912;2022-07-23T14:35:02;15.50;94.60
47226;DHT22;32965;64.142;-21.912;2022-07-23T14:37:30;15.20;94.40
47226;DHT22;32965;64.142;-21.912;2022-07-23T14:39:57;15.10;94.50
47226;DHT22;32965;64.142;-21.912;2022-07-23T14:42:23;15.00;95.00
47226;DHT22;32965;64.142;-21.912;2022-07-23T14:44:49;15.10;94.90
47226;DHT22;32965;64.142;-21.912;2022-07-23T14:47:16;15.10;95.00
47226;DHT22;32965;64.142;-21.912;2022-07-23T14:49:42;15.10;95.00
47226;DHT22;32965;64.142;-21.912;2022-07-23T14:52:13;15.30;94.90
47226;DHT22;32965;64.142;-21.912;2022-07-23T14:54:39;15.30;94.70
47226;DHT22;32965;64.142;-21.912;2022-07-23T14:57:06;15.40;94.70
47226;DHT22;32965;64.142;-21.912;2022-07-23T14:59:35;15.40;94.60
47226;DHT22;32965;64.142;-21.912;2022-07-23T15:02:02;15.40;94.50
47226;DHT22;32965;64.142;-21.912;2022-07-23T15:04:29;15.10;95.00
47226;DHT22;32965;64.142;-21.912;2022-07-23T15:06:54;15.20;95.20
47226;DHT22;32965;64.142;-21.912;2022-07-23T15:09:20;15.40;95.00
47226;DHT22;32965;64.142;-21.912;2022-07-23T15:11:47;15.40;94.80
47226;DHT22;32965;64.142;-21.912;2022-07-23T15:14:13;15.40;94.70
47226;DHT22;32965;64.142;-21.912;2022-07-23T15:16:39;15.40;94.70
47226;DHT22;32965;64.142;-21.912;2022-07-23T15:19:07;15.50;94.80
47226;DHT22;32965;64.142;-21.912;2022-07-23T15:21:33;15.60;94.70
47226;DHT22;32965;64.142;-21.912;2022-07-23T15:24:00;15.60;94.50
47226;DHT22;32965;64.142;-21.912;2022-07-23T15:26:28;15.60;94.50
47226;DHT22;32965;64.142;-21.912;2022-07-23T15:28:54;15.60;94.60
47226;DHT22;32965;64.142;-21.912;2022-07-23T15:31:32;15.80;94.50
47226;DHT22;32965;64.142;-21.912;2022-07-23T15:34:07;15.90;94.30
47226;DHT22;32965;64.142;-21.912;2022-07-23T15:36:33;16.10;94.20
47226;DHT22;32965;64.142;-21.912;2022-07-23T15:39:21;16.10;93.80
47226;DHT22;32965;64.142;-21.912;2022-07-23T15:41:47;16.20;93.60
47226;DHT22;32965;64.142;-21.912;2022-07-23T15:44:14;16.20;93.40
47226;DHT22;32965;64.142;-21.912;2022-07-23T15:46:41;15.90;93.70
47226;DHT22;32965;64.142;-21.912;2022-07-23T15:49:08;16.00;94.00
47226;DHT22;32965;64.142;-21.912;2022-07-23T15:51:35;16.10;93.70
47226;DHT22;32965;64.142;-21.912;2022-07-23T15:54:03;16.10;93.30
47226;DHT22;32965;64.142;-21.912;2022-07-23T15:56:29;16.00;93.50
47226;DHT22;32965;64.142;-21.912;2022-07-23T15:58:56;16.00;93.50
47226;DHT22;32965;64.142;-21.912;2022-07-23T16:01:22;15.90;93.60
47226;DHT22;32965;64.142;-21.912;2022-07-23T16:03:50;15.90;93.50
47226;DHT22;32965;64.142;-21.912;2022-07-23T16:06:17;15.90;93.40